sensor_id;sensor_type;location;lat;lon;timestamp;pressure;altitude;pressure_sealevel;temperature;humidity
73085;BME280;62974;49.460;10.892;2023-07-08T00:01:16;97985.69;;;20.36;49.16
73085;BME280;62974;49.460;10.892;2023-07-08T00:03:44;97984.00;;;20.30;49.24
73085;BME280;62974;49.460;10.892;2023-07-08T00:06:16;97987.19;;;20.27;48.72
73085;BME280;62974;49.460;10.892;2023-07-08T00:08:44;97986.91;;;20.23;48.92
73085;BME280;62974;49.460;10.892;2023-07-08T00:11:13;97994.47;;;20.16;49.79
73085;BME280;62974;49.460;10.892;2023-07-08T00:13:41;97990.66;;;20.17;48.97
73085;BME280;62974;49.460;10.892;2023-07-08T00:16:11;97979.94;;;20.10;49.47
73085;BME280;62974;49.460;10.892;2023-07-08T00:18:39;97989.78;;;20.11;49.14
73085;BME280;62974;49.460;10.892;2023-07-08T00:21:08;97986.38;;;19.99;49.71
73085;BME280;62974;49.460;10.892;2023-07-08T00:23:36;97986.13;;;20.01;49.59
73085;BME280;62974;49.460;10.892;2023-07-08T00:26:10;97989.38;;;19.98;49.62
73085;BME280;62974;49.460;10.892;2023-07-08T00:28:38;97976.81;;;19.97;49.13
73085;BME280;62974;49.460;10.892;2023-07-08T00:31:08;97981.44;;;19.96;49.25
73085;BME280;62974;49.460;10.892;2023-07-08T00:33:38;97981.66;;;19.90;49.55
73085;BME280;62974;49.460;10.892;2023-07-08T00:36:09;97980.50;;;19.86;49.57
73085;BME280;62974;49.460;10.892;2023-07-08T00:38:38;97975.31;;;19.84;49.75
73085;BME280;62974;49.460;10.892;2023-07-08T00:41:14;97978.72;;;19.75;49.88
73085;BME280;62974;49.460;10.892;2023-07-08T00:43:46;97982.28;;;19.75;50.49
73085;BME280;62974;49.460;10.892;2023-07-08T00:46:25;97992.69;;;19.78;49.64
73085;BME280;62974;49.460;10.892;2023-07-08T00:49:03;97989.28;;;19.66;50.49
73085;BME280;62974;49.460;10.892;2023-07-08T00:51:33;97993.31;;;19.63;50.42
73085;BME280;62974;49.460;10.892;2023-07-08T00:54:01;97998.59;;;19.70;50.14
73085;BME280;62974;49.460;10.892;2023-07-08T00:56:28;97996.34;;;19.67;49.89
73085;BME280;62974;49.460;10.892;2023-07-08T00:59:01;97999.91;;;19.67;50.26
73085;BME280;62974;49.460;10.892;2023-07-08T01:01:31;97991.69;;;19.62;49.99
73085;BME280;62974;49.460;10.892;2023-07-08T01:04:04;97990.78;;;19.57;50.30
73085;BME280;62974;49.460;10.892;2023-07-08T01:06:36;97989.97;;;19.56;50.78
73085;BME280;62974;49.460;10.892;2023-07-08T01:09:08;97982.97;;;19.44;51.23
73085;BME280;62974;49.460;10.892;2023-07-08T01:11:39;97973.75;;;19.45;51.01
73085;BME280;62974;49.460;10.892;2023-07-08T01:14:09;97965.63;;;19.50;50.89
73085;BME280;62974;49.460;10.892;2023-07-08T01:16:39;97977.59;;;19.49;50.61
73085;BME280;62974;49.460;10.892;2023-07-08T01:19:14;97972.81;;;19.39;51.08
73085;BME280;62974;49.460;10.892;2023-07-08T01:21:46;97972.50;;;19.36;51.32
73085;BME280;62974;49.460;10.892;2023-07-08T01:24:14;97974.78;;;19.22;51.88
73085;BME280;62974;49.460;10.892;2023-07-08T01:26:43;97974.78;;;19.22;51.53
73085;BME280;62974;49.460;10.892;2023-07-08T01:29:12;97975.91;;;19.26;50.99
73085;BME280;62974;49.460;10.892;2023-07-08T01:31:40;97967.66;;;19.21;51.35
73085;BME280;62974;49.460;10.892;2023-07-08T01:34:10;97974.78;;;19.22;51.07
73085;BME280;62974;49.460;10.892;2023-07-08T01:36:40;97971.97;;;19.17;51.00
73085;BME280;62974;49.460;10.892;2023-07-08T01:39:13;97978.34;;;19.06;51.98
73085;BME280;62974;49.460;10.892;2023-07-08T01:41:42;97971.56;;;19.08;51.53
73085;BME280;62974;49.460;10.892;2023-07-08T01:44:20;97969.91;;;19.07;51.37
73085;BME280;62974;49.460;10.892;2023-07-08T01:46:52;97970.81;;;19.13;50.93
73085;BME280;62974;49.460;10.892;2023-07-08T01:49:20;97975.13;;;19.09;51.35
73085;BME280;62974;49.460;10.892;2023-07-08T01:51:49;97970.94;;;19.01;51.47
73085;BME280;62974;49.460;10.892;2023-07-08T01:54:19;97976.47;;;19.06;51.03
73085;BME280;62974;49.460;10.892;2023-07-08T01:56:46;97971.50;;;19.03;51.02
73085;BME280;62974;49.460;10.892;2023-07-08T01:59:18;97973.34;;;18.98;51.59
73085;BME280;62974;49.460;10.892;2023-07-08T02:01:45;97971.13;;;18.95;51.38
73085;BME280;62974;49.460;10.892;2023-07-08T02:04:14;97975.97;;;18.93;51.82
73085;BME280;62974;49.460;10.892;2023-07-08T02:06:41;97983.56;;;18.91;51.53
73085;BME280;62974;49.460;10.892;2023-07-08T02:09:09;97983.22;;;18.87;52.24
73085;BME280;62974;49.460;10.892;2023-07-08T02:11:40;97975.84;;;18.83;52.66
73085;BME280;62974;49.460;10.892;2023-07-08T02:14:08;97975.56;;;18.84;51.68
73085;BME280;62974;49.460;10.892;2023-07-08T02:16:36;97971.13;;;18.78;52.22
73085;BME280;62974;49.460;10.892;2023-07-08T02:19:03;97972.94;;;18.72;52.29
73085;BME280;62974;49.460;10.892;2023-07-08T02:21:31;97971.88;;;18.73;51.68
73085;BME280;62974;49.460;10.892;2023-07-08T02:24:00;97972.38;;;18.70;52.50
73085;BME280;62974;49.460;10.892;2023-07-08T02:26:31;97975.25;;;18.64;52.64
73085;BME280;62974;49.460;10.892;2023-07-08T02:29:00;97972.28;;;18.65;52.13
73085;BME280;62974;49.460;10.892;2023-07-08T02:31:28;97970.63;;;18.64;52.07
73085;BME280;62974;49.460;10.892;2023-07-08T02:33:56;97974.81;;;18.55;52.52
73085;BME280;62974;49.460;10.892;2023-07-08T02:36:23;97966.44;;;18.57;52.01
73085;BME280;62974;49.460;10.892;2023-07-08T02:38:51;97972.25;;;18.49;52.84
73085;BME280;62974;49.460;10.892;2023-07-08T02:41:18;97970.84;;;18.46;52.78
73085;BME280;62974;49.460;10.892;2023-07-08T02:43:46;97979.53;;;18.43;52.49
73085;BME280;62974;49.460;10.892;2023-07-08T02:46:15;97986.25;;;18.41;52.69
73085;BME280;62974;49.460;10.892;2023-07-08T02:48:42;97994.91;;;18.38;52.49
73085;BME280;62974;49.460;10.892;2023-07-08T02:51:10;97990.44;;;18.31;52.92
73085;BME280;62974;49.460;10.892;2023-07-08T02:53:37;97991.84;;;18.34;52.67
73085;BME280;62974;49.460;10.892;2023-07-08T02:56:05;97986.66;;;18.33;52.41
73085;BME280;62974;49.460;10.892;2023-07-08T02:58:33;97987.16;;;18.29;52.86
73085;BME280;62974;49.460;10.892;2023-07-08T03:01:01;97991.09;;;18.22;53.25
73085;BME280;62974;49.460;10.892;2023-07-08T03:03:31;97994.31;;;18.19;53.20
73085;BME280;62974;49.460;10.892;2023-07-08T03:06:01;97984.72;;;18.16;53.38
73085;BME280;62974;49.460;10.892;2023-07-08T03:08:29;97987.13;;;18.13;53.62
73085;BME280;62974;49.460;10.892;2023-07-08T03:10:58;97998.09;;;18.18;52.69
73085;BME280;62974;49.460;10.892;2023-07-08T03:13:27;97999.38;;;18.15;53.38
73085;BME280;62974;49.460;10.892;2023-07-08T03:15:56;98006.88;;;18.08;53.98
73085;BME280;62974;49.460;10.892;2023-07-08T03:18:25;97998.16;;;18.06;53.79
73085;BME280;62974;49.460;10.892;2023-07-08T03:20:55;98001.44;;;18.08;53.63
73085;BME280;62974;49.460;10.892;2023-07-08T03:23:25;98009.50;;;18.03;54.39
73085;BME280;62974;49.460;10.892;2023-07-08T03:25:53;98006.53;;;18.05;53.94
73085;BME280;62974;49.460;10.892;2023-07-08T03:28:20;98002.16;;;18.04;53.66
73085;BME280;62974;49.460;10.892;2023-07-08T03:30:52;98011.78;;;17.95;54.07
73085;BME280;62974;49.460;10.892;2023-07-08T03:33:20;98015.06;;;17.97;54.14
73085;BME280;62974;49.460;10.892;2023-07-08T03:35:48;98021.72;;;17.89;54.98
73085;BME280;62974;49.460;10.892;2023-07-08T03:38:17;98015.72;;;17.87;55.49
73085;BME280;62974;49.460;10.892;2023-07-08T03:40:45;98022.59;;;17.78;55.73
73085;BME280;62974;49.460;10.892;2023-07-08T03:43:12;98024.53;;;17.94;54.37
73085;BME280;62974;49.460;10.892;2023-07-08T03:45:40;98023.59;;;17.89;54.66
73085;BME280;62974;49.460;10.892;2023-07-08T03:48:08;98033.91;;;17.87;54.65
73085;BME280;62974;49.460;10.892;2023-07-08T03:50:37;98031.66;;;17.83;55.04
73085;BME280;62974;49.460;10.892;2023-07-08T03:53:05;98026.69;;;17.80;54.86
73085;BME280;62974;49.460;10.892;2023-07-08T03:55:34;98022.94;;;17.81;54.54
73085;BME280;62974;49.460;10.892;2023-07-08T03:58:01;98027.19;;;17.77;55.18
73085;BME280;62974;49.460;10.892;2023-07-08T04:00:29;98028.03;;;17.78;55.39
73085;BME280;62974;49.460;10.892;2023-07-08T04:02:56;98027.91;;;17.73;55.60
73085;BME280;62974;49.460;10.892;2023-07-08T04:05:24;98033.34;;;17.73;55.89
73085;BME280;62974;49.460;10.892;2023-07-08T04:07:52;98034.84;;;17.80;55.54
73085;BME280;62974;49.460;10.892;2023-07-08T04:10:20;98032.94;;;17.93;54.37
73085;BME280;62974;49.460;10.892;2023-07-08T04:12:49;98022.66;;;17.95;54.88
73085;BME280;62974;49.460;10.892;2023-07-08T04:15:16;98021.56;;;18.07;55.05
73085;BME280;62974;49.460;10.892;2023-07-08T04:17:47;98019.91;;;18.06;54.87
73085;BME280;62974;49.460;10.892;2023-07-08T04:20:18;98015.69;;;18.15;54.22
73085;BME280;62974;49.460;10.892;2023-07-08T04:22:46;98015.28;;;18.07;54.46
73085;BME280;62974;49.460;10.892;2023-07-08T04:25:14;98014.78;;;18.10;54.12
73085;BME280;62974;49.460;10.892;2023-07-08T04:27:41;98019.34;;;18.21;54.28
73085;BME280;62974;49.460;10.892;2023-07-08T04:30:19;98013.28;;;18.30;53.70
73085;BME280;62974;49.460;10.892;2023-07-08T04:32:49;98022.72;;;18.28;53.76
73085;BME280;62974;49.460;10.892;2023-07-08T04:35:17;98021.78;;;18.34;53.48
73085;BME280;62974;49.460;10.892;2023-07-08T04:37:45;98023.59;;;18.45;52.99
73085;BME280;62974;49.460;10.892;2023-07-08T04:40:18;98023.59;;;18.45;53.18
73085;BME280;62974;49.460;10.892;2023-07-08T04:42:46;98026.31;;;18.45;53.54
73085;BME280;62974;49.460;10.892;2023-07-08T04:45:17;98032.09;;;18.49;53.29
73085;BME280;62974;49.460;10.892;2023-07-08T04:47:45;98026.50;;;18.55;53.20
73085;BME280;62974;49.460;10.892;2023-07-08T04:50:19;98023.66;;;18.62;52.96
73085;BME280;62974;49.460;10.892;2023-07-08T04:52:47;98027.84;;;18.69;53.46
73085;BME280;62974;49.460;10.892;2023-07-08T04:55:16;98018.53;;;18.82;52.67
73085;BME280;62974;49.460;10.892;2023-07-08T04:57:43;98021.50;;;18.97;52.69
73085;BME280;62974;49.460;10.892;2023-07-08T05:00:15;98013.75;;;19.06;52.28
73085;BME280;62974;49.460;10.892;2023-07-08T05:02:44;98021.66;;;19.07;52.54
73085;BME280;62974;49.460;10.892;2023-07-08T05:05:13;98026.94;;;19.14;52.80
73085;BME280;62974;49.460;10.892;2023-07-08T05:07:40;98024.94;;;19.26;52.29
73085;BME280;62974;49.460;10.892;2023-07-08T05:10:08;98021.50;;;19.36;52.97
73085;BME280;62974;49.460;10.892;2023-07-08T05:12:36;98019.53;;;19.48;53.25
73085;BME280;62974;49.460;10.892;2023-07-08T05:15:04;98029.84;;;19.62;53.43
73085;BME280;62974;49.460;10.892;2023-07-08T05:17:34;98025.19;;;19.63;52.41
73085;BME280;62974;49.460;10.892;2023-07-08T05:20:03;98028.06;;;19.73;52.03
73085;BME280;62974;49.460;10.892;2023-07-08T05:22:31;98043.75;;;19.88;56.26
73085;BME280;62974;49.460;10.892;2023-07-08T05:24:59;98039.75;;;19.95;52.39
73085;BME280;62974;49.460;10.892;2023-07-08T05:27:27;98039.06;;;20.05;53.15
73085;BME280;62974;49.460;10.892;2023-07-08T05:29:54;98047.84;;;19.85;59.04
73085;BME280;62974;49.460;10.892;2023-07-08T05:32:22;98039.63;;;20.29;53.94
73085;BME280;62974;49.460;10.892;2023-07-08T05:34:51;98043.41;;;20.49;55.78
73085;BME280;62974;49.460;10.892;2023-07-08T05:37:20;98034.38;;;20.49;57.86
73085;BME280;62974;49.460;10.892;2023-07-08T05:39:51;98031.56;;;20.71;55.89
73085;BME280;62974;49.460;10.892;2023-07-08T05:42:19;98044.72;;;20.74;58.48
73085;BME280;62974;49.460;10.892;2023-07-08T05:44:46;98040.22;;;20.89;56.49
73085;BME280;62974;49.460;10.892;2023-07-08T05:47:14;98040.63;;;21.08;57.73
73085;BME280;62974;49.460;10.892;2023-07-08T05:49:42;98044.91;;;20.99;58.69
73085;BME280;62974;49.460;10.892;2023-07-08T05:52:10;98035.66;;;20.68;57.80
73085;BME280;62974;49.460;10.892;2023-07-08T05:54:40;98036.09;;;20.87;55.87
73085;BME280;62974;49.460;10.892;2023-07-08T05:57:09;98043.03;;;20.68;56.34
73085;BME280;62974;49.460;10.892;2023-07-08T05:59:37;98042.53;;;20.44;56.34
73085;BME280;62974;49.460;10.892;2023-07-08T06:02:06;98034.75;;;20.89;55.60
73085;BME280;62974;49.460;10.892;2023-07-08T06:04:34;98026.56;;;21.21;54.27
73085;BME280;62974;49.460;10.892;2023-07-08T06:07:02;98041.00;;;21.17;54.42
73085;BME280;62974;49.460;10.892;2023-07-08T06:09:29;98038.13;;;21.01;54.21
73085;BME280;62974;49.460;10.892;2023-07-08T06:11:58;98035.13;;;21.03;57.13
73085;BME280;62974;49.460;10.892;2023-07-08T06:14:26;98037.03;;;21.02;55.97
73085;BME280;62974;49.460;10.892;2023-07-08T06:16:54;98031.78;;;21.28;52.94
73085;BME280;62974;49.460;10.892;2023-07-08T06:19:22;98033.97;;;21.31;52.73
73085;BME280;62974;49.460;10.892;2023-07-08T06:21:49;98033.50;;;21.39;53.46
73085;BME280;62974;49.460;10.892;2023-07-08T06:24:17;98032.66;;;21.38;53.49
73085;BME280;62974;49.460;10.892;2023-07-08T06:26:44;98036.59;;;21.52;53.63
73085;BME280;62974;49.460;10.892;2023-07-08T06:29:26;98020.50;;;21.61;50.43
73085;BME280;62974;49.460;10.892;2023-07-08T06:31:53;98031.72;;;21.70;51.25
73085;BME280;62974;49.460;10.892;2023-07-08T06:34:21;98027.78;;;21.92;51.84
73085;BME280;62974;49.460;10.892;2023-07-08T06:36:52;98028.69;;;22.18;50.39
73085;BME280;62974;49.460;10.892;2023-07-08T06:39:19;98031.06;;;21.94;50.41
73085;BME280;62974;49.460;10.892;2023-07-08T06:41:47;98035.38;;;21.90;49.63
73085;BME280;62974;49.460;10.892;2023-07-08T06:44:14;98028.69;;;22.23;49.90
73085;BME280;62974;49.460;10.892;2023-07-08T06:46:44;98039.97;;;22.37;50.82
73085;BME280;62974;49.460;10.892;2023-07-08T06:49:12;98023.78;;;22.25;49.16
73085;BME280;62974;49.460;10.892;2023-07-08T06:51:39;98027.31;;;22.26;50.38
73085;BME280;62974;49.460;10.892;2023-07-08T06:54:07;98015.09;;;22.48;48.98
73085;BME280;62974;49.460;10.892;2023-07-08T06:56:38;98020.56;;;22.59;50.18
73085;BME280;62974;49.460;10.892;2023-07-08T06:59:06;98012.63;;;22.62;48.33
73085;BME280;62974;49.460;10.892;2023-07-08T07:01:33;98012.09;;;23.16;48.80
73085;BME280;62974;49.460;10.892;2023-07-08T07:04:04;98004.69;;;23.11;48.47
73085;BME280;62974;49.460;10.892;2023-07-08T07:06:32;98001.69;;;22.98;47.98
73085;BME280;62974;49.460;10.892;2023-07-08T07:08:59;97999.75;;;23.18;47.68
73085;BME280;62974;49.460;10.892;2023-07-08T07:11:27;98009.09;;;23.12;47.81
73085;BME280;62974;49.460;10.892;2023-07-08T07:13:55;98000.31;;;23.15;47.30
73085;BME280;62974;49.460;10.892;2023-07-08T07:16:23;98008.81;;;23.24;47.10
73085;BME280;62974;49.460;10.892;2023-07-08T07:18:51;98005.19;;;23.38;47.07
73085;BME280;62974;49.460;10.892;2023-07-08T07:21:20;98011.53;;;23.44;48.65
73085;BME280;62974;49.460;10.892;2023-07-08T07:23:47;98007.97;;;23.49;47.11
73085;BME280;62974;49.460;10.892;2023-07-08T07:26:15;98007.69;;;23.35;47.49
73085;BME280;62974;49.460;10.892;2023-07-08T07:28:42;98004.50;;;23.92;47.32
73085;BME280;62974;49.460;10.892;2023-07-08T07:31:10;98007.06;;;23.68;46.62
73085;BME280;62974;49.460;10.892;2023-07-08T07:33:38;98013.34;;;24.33;46.82
73085;BME280;62974;49.460;10.892;2023-07-08T07:36:05;98005.94;;;24.39;46.07
73085;BME280;62974;49.460;10.892;2023-07-08T07:38:34;98004.22;;;23.94;45.99
73085;BME280;62974;49.460;10.892;2023-07-08T07:41:02;98008.25;;;24.16;45.24
73085;BME280;62974;49.460;10.892;2023-07-08T07:43:32;98004.91;;;25.02;44.17
73085;BME280;62974;49.460;10.892;2023-07-08T07:46:00;98008.91;;;24.86;44.35
73085;BME280;62974;49.460;10.892;2023-07-08T07:48:29;98007.59;;;24.73;44.17
73085;BME280;62974;49.460;10.892;2023-07-08T07:50:57;98009.69;;;25.20;44.16
73085;BME280;62974;49.460;10.892;2023-07-08T07:53:24;98018.69;;;24.58;44.59
73085;BME280;62974;49.460;10.892;2023-07-08T07:55:58;98020.72;;;24.43;46.10
73085;BME280;62974;49.460;10.892;2023-07-08T07:58:27;98005.19;;;24.67;45.05
73085;BME280;62974;49.460;10.892;2023-07-08T08:00:55;98004.84;;;24.73;44.23
73085;BME280;62974;49.460;10.892;2023-07-08T08:03:23;98009.63;;;25.25;44.05
73085;BME280;62974;49.460;10.892;2023-07-08T08:05:50;98011.19;;;25.08;43.99
73085;BME280;62974;49.460;10.892;2023-07-08T08:08:19;98000.25;;;25.32;42.80
73085;BME280;62974;49.460;10.892;2023-07-08T08:10:46;97998.16;;;25.47;42.89
73085;BME280;62974;49.460;10.892;2023-07-08T08:13:15;98010.13;;;26.04;43.29
73085;BME280;62974;49.460;10.892;2023-07-08T08:15:43;98007.72;;;25.55;42.86
73085;BME280;62974;49.460;10.892;2023-07-08T08:18:10;98004.25;;;25.68;41.71
73085;BME280;62974;49.460;10.892;2023-07-08T08:20:38;98011.34;;;25.21;42.66
73085;BME280;62974;49.460;10.892;2023-07-08T08:23:06;98008.59;;;25.98;40.65
73085;BME280;62974;49.460;10.892;2023-07-08T08:25:33;98007.34;;;26.09;40.89
73085;BME280;62974;49.460;10.892;2023-07-08T08:28:01;98010.84;;;25.43;43.89
73085;BME280;62974;49.460;10.892;2023-07-08T08:30:31;98020.19;;;26.37;41.74
73085;BME280;62974;49.460;10.892;2023-07-08T08:32:59;98003.72;;;26.70;39.63
73085;BME280;62974;49.460;10.892;2023-07-08T08:35:26;98020.84;;;26.48;38.52
73085;BME280;62974;49.460;10.892;2023-07-08T08:37:54;98012.91;;;26.46;39.16
73085;BME280;62974;49.460;10.892;2023-07-08T08:40:22;98009.19;;;26.75;38.32
73085;BME280;62974;49.460;10.892;2023-07-08T08:42:57;98018.63;;;26.50;40.01
73085;BME280;62974;49.460;10.892;2023-07-08T08:45:31;98024.22;;;26.45;40.61
73085;BME280;62974;49.460;10.892;2023-07-08T08:48:03;98013.09;;;27.52;38.21
73085;BME280;62974;49.460;10.892;2023-07-08T08:50:39;98009.03;;;27.17;36.77
73085;BME280;62974;49.460;10.892;2023-07-08T08:53:12;98029.94;;;26.30;40.72
73085;BME280;62974;49.460;10.892;2023-07-08T08:55:41;98015.50;;;26.94;37.57
73085;BME280;62974;49.460;10.892;2023-07-08T08:58:25;98014.97;;;27.24;37.05
73085;BME280;62974;49.460;10.892;2023-07-08T09:00:59;98017.91;;;27.46;37.94
73085;BME280;62974;49.460;10.892;2023-07-08T09:03:34;98027.50;;;26.84;37.99
73085;BME280;62974;49.460;10.892;2023-07-08T09:06:10;98020.34;;;26.83;37.46
73085;BME280;62974;49.460;10.892;2023-07-08T09:08:38;98028.56;;;27.21;38.71
73085;BME280;62974;49.460;10.892;2023-07-08T09:11:17;98020.97;;;27.13;36.60
73085;BME280;62974;49.460;10.892;2023-07-08T09:13:48;98018.06;;;27.04;36.14
73085;BME280;62974;49.460;10.892;2023-07-08T09:16:24;98026.84;;;26.55;37.28
73085;BME280;62974;49.460;10.892;2023-07-08T09:18:59;98042.16;;;26.61;36.85
73085;BME280;62974;49.460;10.892;2023-07-08T09:21:31;98040.25;;;26.99;36.19
73085;BME280;62974;49.460;10.892;2023-07-08T09:24:04;98033.84;;;27.49;36.52
73085;BME280;62974;49.460;10.892;2023-07-08T09:26:35;98040.47;;;27.16;35.93
73085;BME280;62974;49.460;10.892;2023-07-08T09:29:08;98031.72;;;27.60;35.52
73085;BME280;62974;49.460;10.892;2023-07-08T09:31:39;98025.50;;;27.68;35.09
73085;BME280;62974;49.460;10.892;2023-07-08T09:34:11;98017.44;;;27.39;34.34
73085;BME280;62974;49.460;10.892;2023-07-08T09:36:40;98013.41;;;28.46;32.60
73085;BME280;62974;49.460;10.892;2023-07-08T09:39:13;98022.00;;;28.44;33.67
73085;BME280;62974;49.460;10.892;2023-07-08T09:41:42;98031.66;;;28.06;35.28
73085;BME280;62974;49.460;10.892;2023-07-08T09:44:21;98024.38;;;28.24;33.82
73085;BME280;62974;49.460;10.892;2023-07-08T09:46:53;98017.78;;;28.47;31.68
73085;BME280;62974;49.460;10.892;2023-07-08T09:49:26;98015.47;;;28.76;32.67
73085;BME280;62974;49.460;10.892;2023-07-08T09:51:55;98023.25;;;28.38;33.73
73085;BME280;62974;49.460;10.892;2023-07-08T09:54:23;98033.38;;;28.29;34.80
73085;BME280;62974;49.460;10.892;2023-07-08T09:56:58;98012.31;;;27.79;33.24
73085;BME280;62974;49.460;10.892;2023-07-08T09:59:30;98018.44;;;28.30;32.33
73085;BME280;62974;49.460;10.892;2023-07-08T10:02:02;98024.28;;;28.15;34.75
73085;BME280;62974;49.460;10.892;2023-07-08T10:04:31;98028.97;;;28.15;35.39
73085;BME280;62974;49.460;10.892;2023-07-08T10:06:59;98018.13;;;28.05;32.80
73085;BME280;62974;49.460;10.892;2023-07-08T10:09:27;98016.19;;;28.68;32.97
73085;BME280;62974;49.460;10.892;2023-07-08T10:11:56;98022.75;;;28.59;32.75
73085;BME280;62974;49.460;10.892;2023-07-08T10:14:29;98015.47;;;28.99;31.82
73085;BME280;62974;49.460;10.892;2023-07-08T10:17:01;98023.75;;;28.40;32.50
73085;BME280;62974;49.460;10.892;2023-07-08T10:19:28;98019.25;;;28.80;32.49
73085;BME280;62974;49.460;10.892;2023-07-08T10:22:08;98024.00;;;28.53;33.58
73085;BME280;62974;49.460;10.892;2023-07-08T10:24:51;98017.72;;;29.19;32.52
73085;BME280;62974;49.460;10.892;2023-07-08T10:27:27;98007.25;;;28.35;30.92
73085;BME280;62974;49.460;10.892;2023-07-08T10:30:03;98019.34;;;28.75;31.95
73085;BME280;62974;49.460;10.892;2023-07-08T10:32:48;98010.09;;;28.93;30.58
73085;BME280;62974;49.460;10.892;2023-07-08T10:35:23;98004.28;;;28.81;32.07
73085;BME280;62974;49.460;10.892;2023-07-08T10:38:05;98003.09;;;28.96;29.83
73085;BME280;62974;49.460;10.892;2023-07-08T10:40:45;98025.41;;;28.64;32.51
73085;BME280;62974;49.460;10.892;2023-07-08T10:43:31;98010.25;;;29.42;30.45
73085;BME280;62974;49.460;10.892;2023-07-08T10:46:20;98014.34;;;29.00;30.78
73085;BME280;62974;49.460;10.892;2023-07-08T10:52:05;98022.16;;;28.62;30.85
73085;BME280;62974;49.460;10.892;2023-07-08T10:54:52;98016.19;;;28.82;30.75
73085;BME280;62974;49.460;10.892;2023-07-08T10:57:38;98006.91;;;29.31;30.42
73085;BME280;62974;49.460;10.892;2023-07-08T11:00:18;98000.59;;;30.18;29.02
73085;BME280;62974;49.460;10.892;2023-07-08T11:03:03;98009.97;;;29.52;31.15
73085;BME280;62974;49.460;10.892;2023-07-08T11:05:41;98003.63;;;29.91;29.01
73085;BME280;62974;49.460;10.892;2023-07-08T11:08:15;98003.78;;;29.55;27.58
73085;BME280;62974;49.460;10.892;2023-07-08T11:10:49;98014.72;;;29.91;28.94
73085;BME280;62974;49.460;10.892;2023-07-08T11:13:44;97994.81;;;29.49;26.76
73085;BME280;62974;49.460;10.892;2023-07-08T11:16:19;98000.75;;;29.65;28.16
73085;BME280;62974;49.460;10.892;2023-07-08T11:18:54;98013.34;;;29.18;28.64
73085;BME280;62974;49.460;10.892;2023-07-08T11:21:29;97996.53;;;29.36;27.65
73085;BME280;62974;49.460;10.892;2023-07-08T11:24:04;97990.81;;;29.64;26.60
73085;BME280;62974;49.460;10.892;2023-07-08T11:26:37;97984.50;;;29.72;27.36
73085;BME280;62974;49.460;10.892;2023-07-08T11:29:14;97991.84;;;28.57;28.86
73085;BME280;62974;49.460;10.892;2023-07-08T11:31:44;97988.09;;;28.39;28.03
73085;BME280;62974;49.460;10.892;2023-07-08T11:34:15;97993.72;;;28.47;30.41
73085;BME280;62974;49.460;10.892;2023-07-08T11:36:46;97993.06;;;28.64;29.20
73085;BME280;62974;49.460;10.892;2023-07-08T11:39:31;97985.78;;;29.13;29.67
73085;BME280;62974;49.460;10.892;2023-07-08T11:42:05;97988.25;;;28.92;29.78
73085;BME280;62974;49.460;10.892;2023-07-08T11:44:42;97977.78;;;29.64;28.77
73085;BME280;62974;49.460;10.892;2023-07-08T11:47:16;97982.06;;;29.39;29.01
73085;BME280;62974;49.460;10.892;2023-07-08T11:49:46;97981.81;;;29.27;28.57
73085;BME280;62974;49.460;10.892;2023-07-08T11:52:18;97970.88;;;29.45;28.96
73085;BME280;62974;49.460;10.892;2023-07-08T11:54:47;97964.09;;;29.28;27.31
73085;BME280;62974;49.460;10.892;2023-07-08T11:57:18;97964.38;;;29.49;28.93
73085;BME280;62974;49.460;10.892;2023-07-08T11:59:46;97962.94;;;30.00;27.64
73085;BME280;62974;49.460;10.892;2023-07-08T12:02:16;97962.13;;;29.99;27.24
73085;BME280;62974;49.460;10.892;2023-07-08T12:04:59;97966.81;;;29.51;29.44
73085;BME280;62974;49.460;10.892;2023-07-08T12:07:36;97948.38;;;29.37;26.88
73085;BME280;62974;49.460;10.892;2023-07-08T12:10:10;97966.25;;;29.79;30.35
73085;BME280;62974;49.460;10.892;2023-07-08T12:12:42;97957.19;;;29.48;27.55
73085;BME280;62974;49.460;10.892;2023-07-08T12:15:15;97947.03;;;29.74;25.64
73085;BME280;62974;49.460;10.892;2023-07-08T12:17:44;97962.81;;;29.65;28.32
73085;BME280;62974;49.460;10.892;2023-07-08T12:20:18;97960.53;;;29.67;27.99
73085;BME280;62974;49.460;10.892;2023-07-08T12:22:50;97952.69;;;30.26;27.65
73085;BME280;62974;49.460;10.892;2023-07-08T12:25:20;97958.91;;;30.31;27.63
73085;BME280;62974;49.460;10.892;2023-07-08T12:27:49;97950.31;;;29.85;27.24
73085;BME280;62974;49.460;10.892;2023-07-08T12:30:16;97960.84;;;30.05;29.29
73085;BME280;62974;49.460;10.892;2023-07-08T12:32:44;97958.25;;;29.78;29.71
73085;BME280;62974;49.460;10.892;2023-07-08T12:35:21;97959.25;;;29.82;29.74
73085;BME280;62974;49.460;10.892;2023-07-08T12:37:52;97958.72;;;29.63;30.39
73085;BME280;62974;49.460;10.892;2023-07-08T12:40:21;97963.75;;;29.61;30.82
73085;BME280;62974;49.460;10.892;2023-07-08T12:42:49;97956.66;;;29.77;29.04
73085;BME280;62974;49.460;10.892;2023-07-08T12:45:18;97956.22;;;29.92;29.16
73085;BME280;62974;49.460;10.892;2023-07-08T12:47:47;97963.59;;;30.05;28.42
73085;BME280;62974;49.460;10.892;2023-07-08T12:50:15;97958.78;;;29.80;29.92
73085;BME280;62974;49.460;10.892;2023-07-08T12:52:44;97965.28;;;30.66;28.89
73085;BME280;62974;49.460;10.892;2023-07-08T12:55:15;97971.13;;;30.13;30.28
73085;BME280;62974;49.460;10.892;2023-07-08T12:57:47;97957.50;;;29.86;29.30
73085;BME280;62974;49.460;10.892;2023-07-08T13:00:24;97953.38;;;29.75;29.12
73085;BME280;62974;49.460;10.892;2023-07-08T13:02:56;97960.66;;;30.10;29.78
73085;BME280;62974;49.460;10.892;2023-07-08T13:05:26;97967.88;;;30.20;28.96
73085;BME280;62974;49.460;10.892;2023-07-08T13:07:55;97965.88;;;30.03;29.56
73085;BME280;62974;49.460;10.892;2023-07-08T13:10:28;97958.06;;;30.22;28.29